createdAt,value
2023-03-22T00:00:00.580Z,8.2
2023-03-22T00:01:08.754Z,8.2
2023-03-22T00:02:00.545Z,8.2
2023-03-22T00:03:00.777Z,8.2
2023-03-22T00:04:00.592Z,8.2
2023-03-22T00:05:00.644Z,8.2
2023-03-22T00:06:00.558Z,8.2
2023-03-22T00:07:00.560Z,8.2
2023-03-22T00:08:00.649Z,8.2
2023-03-22T00:09:00.557Z,8.2
2023-03-22T00:10:00.570Z,8.1
2023-03-22T00:11:00.749Z,8.1
2023-03-22T00:12:00.535Z,8.1
2023-03-22T00:13:00.815Z,8.1
2023-03-22T00:14:00.547Z,8.1
2023-03-22T00:15:00.544Z,8.1
2023-03-22T00:16:00.748Z,8.1
2023-03-22T00:17:00.561Z,8.0
2023-03-22T00:18:01.481Z,8.0
2023-03-22T00:19:00.561Z,8.0
2023-03-22T00:20:00.563Z,8.0
2023-03-22T00:21:00.587Z,8.0
2023-03-22T00:22:00.926Z,8.0
2023-03-22T00:23:00.516Z,8.0
2023-03-22T00:24:00.561Z,8.0
2023-03-22T00:25:00.541Z,8.0
2023-03-22T00:26:00.551Z,8.0
2023-03-22T00:27:00.559Z,8.0
2023-03-22T00:28:00.556Z,8.0
2023-03-22T00:29:00.549Z,7.9
2023-03-22T00:30:01.022Z,7.9
2023-03-22T00:31:01.665Z,7.9
2023-03-22T00:32:00.631Z,7.9
2023-03-22T00:33:00.652Z,7.9
2023-03-22T00:34:00.549Z,7.9
2023-03-22T00:35:00.741Z,7.9
2023-03-22T00:36:04.842Z,7.9
2023-03-22T00:37:00.515Z,7.9
2023-03-22T00:38:00.570Z,8.0
2023-03-22T00:39:00.564Z,8.0
2023-03-22T00:40:00.575Z,8.0
2023-03-22T00:41:10.483Z,8.0
2023-03-22T00:42:03.106Z,8.0
2023-03-22T00:43:00.534Z,8.0
2023-03-22T00:44:00.546Z,7.9
2023-03-22T00:45:00.812Z,8.0
2023-03-22T00:46:00.743Z,8.0
2023-03-22T00:47:00.842Z,8.0
2023-03-22T00:48:00.894Z,8.0
2023-03-22T00:49:00.522Z,8.0
2023-03-22T00:50:00.984Z,8.0
2023-03-22T00:51:00.624Z,8.0
2023-03-22T00:52:00.622Z,8.0
2023-03-22T00:53:00.713Z,8.0
2023-03-22T00:54:00.571Z,8.0
2023-03-22T00:55:00.659Z,8.0
2023-03-22T00:56:01.178Z,8.0
2023-03-22T00:57:00.536Z,8.0
2023-03-22T00:58:00.542Z,8.0
2023-03-22T00:59:00.565Z,8.0
2023-03-22T01:00:00.642Z,8.0
2023-03-22T01:01:00.645Z,8.0
2023-03-22T01:02:00.564Z,8.0
2023-03-22T01:03:00.861Z,8.0
2023-03-22T01:04:00.674Z,8.0
2023-03-22T01:05:00.569Z,8.0
2023-03-22T01:06:00.538Z,8.0
2023-03-22T01:07:01.276Z,8.0
2023-03-22T01:08:02.078Z,8.0
2023-03-22T01:09:00.883Z,8.0
2023-03-22T01:10:00.521Z,8.0
2023-03-22T01:11:00.549Z,8.0
2023-03-22T01:12:01.073Z,8.0
2023-03-22T01:13:00.671Z,8.0
2023-03-22T01:14:00.560Z,8.0
2023-03-22T01:15:00.794Z,8.0
2023-03-22T01:16:00.546Z,8.0
2023-03-22T01:17:00.696Z,8.0
2023-03-22T01:18:00.587Z,8.0
2023-03-22T01:19:00.694Z,8.0
2023-03-22T01:20:00.709Z,8.0
2023-03-22T01:21:01.101Z,8.0
2023-03-22T01:22:01.570Z,8.0
2023-03-22T01:23:00.571Z,8.0
2023-03-22T01:24:00.565Z,8.0
2023-03-22T01:25:00.602Z,8.0
2023-03-22T01:26:00.946Z,8.0
2023-03-22T01:27:00.518Z,8.0
2023-03-22T01:28:00.681Z,8.0
2023-03-22T01:29:00.695Z,8.0
2023-03-22T01:30:00.713Z,8.0
2023-03-22T01:31:01.181Z,8.0
2023-03-22T01:32:00.625Z,8.0
2023-03-22T01:33:00.557Z,8.0
2023-03-22T01:34:00.635Z,8.0
2023-03-22T01:35:00.660Z,8.0
2023-03-22T01:36:00.604Z,8.0
2023-03-22T01:37:00.526Z,8.0
2023-03-22T01:38:00.592Z,8.0
2023-03-22T01:39:00.694Z,8.0
2023-03-22T01:40:00.553Z,8.0
2023-03-22T01:41:00.600Z,8.0
2023-03-22T01:42:02.385Z,8.0
2023-03-22T01:43:00.569Z,8.0
2023-03-22T01:44:10.255Z,8.0
2023-03-22T01:45:13.741Z,8.0
2023-03-22T01:46:00.647Z,8.0
2023-03-22T01:47:00.562Z,8.0
2023-03-22T01:48:07.896Z,8.0
2023-03-22T01:49:02.969Z,8.0
2023-03-22T01:50:00.829Z,8.0
2023-03-22T01:51:06.592Z,8.0
2023-03-22T01:52:06.297Z,8.0
2023-03-22T01:53:00.647Z,8.0
2023-03-22T01:54:04.772Z,8.0
2023-03-22T01:55:00.994Z,8.0
2023-03-22T01:56:01.422Z,8.0
2023-03-22T01:57:01.936Z,8.0
2023-03-22T01:58:02.124Z,7.9
2023-03-22T01:59:01.476Z,7.9
2023-03-22T02:00:00.571Z,7.9
2023-03-22T02:01:01.381Z,7.9
2023-03-22T02:02:01.339Z,7.9
2023-03-22T02:03:00.885Z,7.9
2023-03-22T02:04:07.107Z,7.9
2023-03-22T02:05:00.655Z,7.9
2023-03-22T02:06:00.558Z,7.9
2023-03-22T02:07:04.795Z,7.9
2023-03-22T02:08:00.954Z,7.9
2023-03-22T02:09:00.567Z,7.9
2023-03-22T02:10:00.873Z,7.9
2023-03-22T02:11:02.448Z,7.9
2023-03-22T02:12:15.607Z,7.9
2023-03-22T02:13:18.448Z,7.9
2023-03-22T02:14:17.928Z,7.9
2023-03-22T02:15:09.828Z,7.9
2023-03-22T02:16:20.484Z,7.8
2023-03-22T02:17:16.547Z,7.8
2023-03-22T02:18:20.446Z,7.8
2023-03-22T02:19:10.476Z,7.9
2023-03-22T02:20:20.446Z,7.8
2023-03-22T02:21:20.428Z,7.8
2023-03-22T02:22:10.481Z,7.8
2023-03-22T02:23:00.517Z,7.8
2023-03-22T02:24:20.422Z,7.8
2023-03-22T02:25:10.474Z,7.8
2023-03-22T02:26:20.480Z,7.8
2023-03-22T02:27:10.482Z,7.8
2023-03-22T02:28:09.115Z,7.8
2023-03-22T02:29:11.479Z,7.8
2023-03-22T02:30:11.473Z,7.8
2023-03-22T02:31:15.756Z,7.8
2023-03-22T02:32:13.774Z,7.8
2023-03-22T02:33:19.514Z,7.8
2023-03-22T02:34:20.426Z,7.7
2023-03-22T02:35:20.570Z,7.8
2023-03-22T02:36:19.724Z,7.8
2023-03-22T02:37:16.326Z,7.8
2023-03-22T02:38:13.181Z,7.8
2023-03-22T02:39:12.921Z,7.8
2023-03-22T02:40:11.112Z,7.8
2023-03-22T02:41:10.847Z,7.8
2023-03-22T02:42:08.785Z,7.8
2023-03-22T02:43:14.689Z,7.8
2023-03-22T02:44:10.136Z,7.8
2023-03-22T02:45:20.542Z,7.8
2023-03-22T02:46:08.810Z,7.8
2023-03-22T02:47:06.082Z,7.8
2023-03-22T02:48:08.443Z,7.8
2023-03-22T02:49:20.477Z,7.8
2023-03-22T02:50:07.944Z,7.8
2023-03-22T02:51:14.054Z,7.8
2023-03-22T02:52:08.875Z,7.8
2023-03-22T02:53:11.507Z,7.8
2023-03-22T02:54:05.125Z,7.8
2023-03-22T02:55:13.377Z,7.8
2023-03-22T02:56:06.450Z,7.8
2023-03-22T02:57:10.585Z,7.8
2023-03-22T02:58:09.500Z,7.8
2023-03-22T02:59:04.003Z,7.8
2023-03-22T03:00:02.860Z,7.8
2023-03-22T03:01:03.392Z,7.8
2023-03-22T03:02:02.420Z,7.8
2023-03-22T03:03:05.633Z,7.8
2023-03-22T03:04:04.930Z,7.8
2023-03-22T03:05:01.727Z,7.8
2023-03-22T03:06:05.970Z,7.8
2023-03-22T03:07:06.067Z,7.8
2023-03-22T03:08:01.666Z,7.9
2023-03-22T03:09:00.938Z,7.9
2023-03-22T03:10:01.590Z,7.9
2023-03-22T03:11:00.748Z,7.9
2023-03-22T03:12:00.567Z,7.9
2023-03-22T03:13:00.549Z,7.9
2023-03-22T03:14:00.605Z,7.9
2023-03-22T03:15:00.638Z,7.9
2023-03-22T03:16:03.896Z,7.9
2023-03-22T03:17:11.344Z,7.9
2023-03-22T03:18:10.042Z,7.9
2023-03-22T03:19:16.720Z,7.9
2023-03-22T03:20:20.479Z,7.9
2023-03-22T03:21:07.684Z,7.9
2023-03-22T03:22:12.031Z,7.9
2023-03-22T03:23:15.349Z,7.9
2023-03-22T03:24:13.167Z,7.9
2023-03-22T03:25:13.766Z,7.9
2023-03-22T03:26:20.452Z,7.9
2023-03-22T03:27:07.196Z,7.9
2023-03-22T03:28:08.621Z,7.8
2023-03-22T03:29:09.199Z,7.8
2023-03-22T03:30:08.560Z,7.8
2023-03-22T03:31:19.281Z,7.8
2023-03-22T03:32:08.921Z,7.8
2023-03-22T03:33:07.240Z,7.8
2023-03-22T03:34:12.156Z,7.8
2023-03-22T03:35:07.269Z,7.8
2023-03-22T03:36:07.212Z,7.8
2023-03-22T03:37:13.370Z,7.8
2023-03-22T03:38:07.909Z,7.8
2023-03-22T03:39:02.384Z,7.8
2023-03-22T03:40:09.007Z,7.8
2023-03-22T03:41:05.473Z,7.8
2023-03-22T03:42:02.488Z,7.8
2023-03-22T03:43:03.374Z,7.8
2023-03-22T03:44:02.655Z,7.7
2023-03-22T03:45:00.691Z,7.7
2023-03-22T03:46:01.008Z,7.7
2023-03-22T03:47:01.058Z,7.7
2023-03-22T03:48:05.304Z,7.8
2023-03-22T03:49:03.499Z,7.7
2023-03-22T03:50:01.273Z,7.7
2023-03-22T03:51:01.421Z,7.7
2023-03-22T03:52:02.565Z,7.7
2023-03-22T03:53:00.546Z,7.7
2023-03-22T03:54:00.548Z,7.7
2023-03-22T03:55:00.667Z,7.7
2023-03-22T03:56:00.583Z,7.7
2023-03-22T03:57:02.222Z,7.7
2023-03-22T03:58:00.762Z,7.8
2023-03-22T03:59:00.530Z,7.8
2023-03-22T04:00:00.571Z,7.8
2023-03-22T04:01:00.597Z,7.8
2023-03-22T04:02:00.635Z,7.8
2023-03-22T04:03:00.991Z,7.8
2023-03-22T04:04:00.828Z,7.8
2023-03-22T04:05:00.695Z,7.8
2023-03-22T04:06:00.771Z,7.8
2023-03-22T04:07:03.521Z,7.8
2023-03-22T04:08:00.765Z,7.8
2023-03-22T04:09:00.552Z,7.8
2023-03-22T04:10:00.659Z,7.8
2023-03-22T04:11:00.573Z,7.7
2023-03-22T04:12:00.615Z,7.7
2023-03-22T04:13:00.576Z,7.7
2023-03-22T04:14:00.626Z,7.7
2023-03-22T04:15:00.697Z,7.7
2023-03-22T04:16:00.535Z,7.7
2023-03-22T04:17:00.745Z,7.7
2023-03-22T04:18:00.549Z,7.7
2023-03-22T04:19:00.641Z,7.7
2023-03-22T04:20:00.600Z,7.7
2023-03-22T04:21:00.541Z,7.7
2023-03-22T04:22:01.049Z,7.7
2023-03-22T04:23:00.564Z,7.7
2023-03-22T04:24:00.602Z,7.7
2023-03-22T04:25:00.548Z,7.7
2023-03-22T04:26:00.562Z,7.7
2023-03-22T04:27:00.527Z,7.7
2023-03-22T04:28:00.619Z,7.7
2023-03-22T04:29:00.941Z,7.7
2023-03-22T04:30:00.543Z,7.7
2023-03-22T04:31:00.612Z,7.7
2023-03-22T04:32:01.727Z,7.7
2023-03-22T04:33:03.686Z,7.7
2023-03-22T04:34:00.564Z,7.7
2023-03-22T04:35:00.558Z,7.7
2023-03-22T04:36:02.507Z,7.7
2023-03-22T04:37:00.527Z,7.8
2023-03-22T04:38:00.594Z,7.8
2023-03-22T04:39:03.091Z,7.8
2023-03-22T04:40:00.722Z,7.8
2023-03-22T04:41:00.549Z,7.8
2023-03-22T04:42:00.536Z,7.8
2023-03-22T04:43:00.547Z,7.8
2023-03-22T04:44:00.624Z,7.8
2023-03-22T04:45:01.399Z,7.9
2023-03-22T04:46:00.802Z,7.8
2023-03-22T04:47:00.569Z,7.8
2023-03-22T04:48:00.595Z,7.8
2023-03-22T04:49:00.914Z,7.8
2023-03-22T04:50:00.554Z,7.9
2023-03-22T04:51:00.517Z,7.9
2023-03-22T04:52:00.626Z,7.8
2023-03-22T04:53:00.551Z,7.9
2023-03-22T04:54:00.673Z,7.9
2023-03-22T04:55:00.732Z,7.9
2023-03-22T04:56:00.520Z,7.9
2023-03-22T04:57:00.667Z,7.9
2023-03-22T04:58:00.639Z,7.9
2023-03-22T04:59:00.694Z,7.9
2023-03-22T05:00:00.543Z,7.9
2023-03-22T05:01:01.073Z,7.9
2023-03-22T05:02:00.591Z,7.9
2023-03-22T05:03:00.595Z,7.9
2023-03-22T05:04:00.588Z,7.9
2023-03-22T05:05:00.562Z,7.9
2023-03-22T05:06:01.475Z,7.9
2023-03-22T05:07:00.561Z,7.9
2023-03-22T05:08:00.576Z,7.8
2023-03-22T05:09:00.559Z,7.8
2023-03-22T05:10:00.606Z,7.8
2023-03-22T05:11:07.804Z,7.8
2023-03-22T05:12:00.556Z,7.8
2023-03-22T05:13:00.542Z,7.8
2023-03-22T05:14:01.121Z,7.8
2023-03-22T05:15:00.557Z,7.8
2023-03-22T05:16:00.796Z,7.8
2023-03-22T05:17:00.600Z,7.8
2023-03-22T05:18:00.551Z,7.8
2023-03-22T05:19:01.196Z,7.8
2023-03-22T05:20:00.574Z,7.8
2023-03-22T05:21:00.562Z,7.8
2023-03-22T05:22:00.605Z,7.8
2023-03-22T05:23:00.601Z,7.8
2023-03-22T05:24:00.526Z,7.8
2023-03-22T05:25:00.581Z,7.8
2023-03-22T05:26:00.520Z,7.8
2023-03-22T05:27:00.557Z,7.8
2023-03-22T05:28:01.434Z,7.8
2023-03-22T05:29:00.540Z,7.8
2023-03-22T05:30:00.879Z,7.8
2023-03-22T05:31:00.833Z,7.8
2023-03-22T05:32:00.521Z,7.7
2023-03-22T05:33:02.369Z,7.7
2023-03-22T05:34:00.526Z,7.7
2023-03-22T05:35:00.539Z,7.7
2023-03-22T05:36:00.753Z,7.7
2023-03-22T05:37:01.289Z,7.7
2023-03-22T05:38:00.600Z,7.7
2023-03-22T05:39:00.571Z,7.7
2023-03-22T05:40:01.355Z,7.7
2023-03-22T05:41:00.536Z,7.8
2023-03-22T05:42:00.577Z,7.8
2023-03-22T05:43:00.572Z,7.8
2023-03-22T05:44:00.568Z,7.8
2023-03-22T05:45:00.804Z,7.8
2023-03-22T05:46:03.297Z,7.8
2023-03-22T05:47:00.673Z,7.8
2023-03-22T05:48:00.544Z,7.8
2023-03-22T05:49:00.526Z,7.9
2023-03-22T05:50:00.561Z,7.9
2023-03-22T05:51:00.841Z,7.9
2023-03-22T05:52:00.594Z,7.9
2023-03-22T05:53:00.946Z,7.9
2023-03-22T05:54:00.521Z,8.0
2023-03-22T05:55:00.715Z,8.0
2023-03-22T05:56:00.554Z,8.0
2023-03-22T05:57:00.548Z,8.0
2023-03-22T05:58:00.530Z,8.0
2023-03-22T05:59:02.272Z,8.0
2023-03-22T06:00:00.555Z,8.1
2023-03-22T06:01:05.345Z,8.1
2023-03-22T06:02:00.749Z,8.1
2023-03-22T06:03:00.622Z,8.1
2023-03-22T06:04:00.578Z,8.1
2023-03-22T06:05:00.551Z,8.1
2023-03-22T06:06:00.540Z,8.2
2023-03-22T06:07:00.539Z,8.2
2023-03-22T06:08:00.839Z,8.2
2023-03-22T06:09:14.066Z,8.2
2023-03-22T06:10:00.850Z,8.2
2023-03-22T06:11:00.543Z,8.2
2023-03-22T06:12:00.555Z,8.2
2023-03-22T06:13:00.590Z,8.3
2023-03-22T06:14:00.571Z,8.3
2023-03-22T06:15:00.672Z,8.3
2023-03-22T06:16:02.675Z,8.3
2023-03-22T06:17:00.640Z,8.4
2023-03-22T06:18:00.565Z,8.4
2023-03-22T06:19:00.556Z,8.4
2023-03-22T06:20:00.580Z,8.4
2023-03-22T06:21:00.827Z,8.5
2023-03-22T06:22:00.546Z,8.5
2023-03-22T06:23:01.200Z,8.5
2023-03-22T06:24:00.558Z,8.6
2023-03-22T06:25:00.869Z,8.6
2023-03-22T06:26:00.581Z,8.6
2023-03-22T06:27:00.644Z,8.6
2023-03-22T06:28:00.837Z,8.7
2023-03-22T06:29:00.532Z,8.7
2023-03-22T06:30:00.635Z,8.7
2023-03-22T06:31:05.121Z,8.7
2023-03-22T06:32:01.444Z,8.8
2023-03-22T06:33:00.584Z,8.8
2023-03-22T06:34:00.733Z,8.8
2023-03-22T06:35:00.554Z,8.9
2023-03-22T06:36:01.216Z,8.9
2023-03-22T06:37:00.640Z,8.9
2023-03-22T06:38:00.732Z,8.9
2023-03-22T06:39:00.594Z,9.0
2023-03-22T06:40:00.593Z,9.1
2023-03-22T06:41:00.544Z,9.2
2023-03-22T06:42:00.516Z,9.3
2023-03-22T06:43:03.970Z,9.6
2023-03-22T06:44:00.652Z,9.9
2023-03-22T06:45:00.550Z,10.3
2023-03-22T06:46:00.577Z,10.6
2023-03-22T06:47:00.806Z,10.9
2023-03-22T06:48:00.803Z,11.3
2023-03-22T06:49:00.556Z,11.6
2023-03-22T06:50:00.553Z,11.8
2023-03-22T06:51:00.612Z,12.0
2023-03-22T06:52:00.550Z,12.2
2023-03-22T06:53:00.635Z,12.2
2023-03-22T06:54:00.588Z,12.1
2023-03-22T06:55:00.655Z,11.9
2023-03-22T06:56:00.558Z,12.0
2023-03-22T06:57:00.550Z,12.0
2023-03-22T06:58:01.155Z,12.0
2023-03-22T06:59:00.516Z,12.0
2023-03-22T07:00:00.812Z,12.1
2023-03-22T07:01:00.580Z,12.0
2023-03-22T07:02:00.548Z,12.1
2023-03-22T07:03:00.622Z,12.2
2023-03-22T07:04:00.789Z,12.1
2023-03-22T07:05:00.650Z,12.1
2023-03-22T07:06:02.443Z,12.2
2023-03-22T07:07:00.551Z,12.1
2023-03-22T07:08:00.641Z,12.1
2023-03-22T07:09:00.803Z,12.0
2023-03-22T07:10:00.536Z,12.1
2023-03-22T07:11:00.565Z,12.1
2023-03-22T07:12:00.581Z,12.1
2023-03-22T07:13:00.574Z,12.1
2023-03-22T07:14:00.567Z,12.1
2023-03-22T07:15:01.179Z,12.1
2023-03-22T07:16:01.265Z,12.2
2023-03-22T07:17:00.567Z,12.2
2023-03-22T07:18:01.172Z,12.3
2023-03-22T07:19:00.549Z,12.2
2023-03-22T07:20:00.550Z,12.1
2023-03-22T07:21:00.515Z,12.2
2023-03-22T07:22:00.557Z,12.2
2023-03-22T07:23:00.532Z,12.2
2023-03-22T07:24:00.555Z,12.1
2023-03-22T07:25:01.809Z,12.2
2023-03-22T07:26:00.583Z,12.2
2023-03-22T07:27:00.637Z,12.2
2023-03-22T07:28:00.571Z,12.2
2023-03-22T07:29:00.521Z,12.2
2023-03-22T07:30:01.361Z,12.2
2023-03-22T07:31:03.136Z,12.1
2023-03-22T07:32:00.664Z,12.1
2023-03-22T07:33:00.692Z,12.1
2023-03-22T07:34:01.133Z,12.3
2023-03-22T07:35:00.563Z,12.4
2023-03-22T07:36:00.751Z,12.6
2023-03-22T07:37:00.567Z,12.5
2023-03-22T07:38:00.541Z,12.5
2023-03-22T07:39:00.949Z,12.6
2023-03-22T07:40:00.599Z,12.6
2023-03-22T07:41:00.709Z,12.6
2023-03-22T07:42:00.577Z,12.8
2023-03-22T07:43:00.531Z,12.9
2023-03-22T07:44:16.709Z,13.0
2023-03-22T07:45:00.658Z,13.0
2023-03-22T07:46:00.531Z,13.0
2023-03-22T07:47:01.202Z,13.0
2023-03-22T07:48:00.593Z,13.0
2023-03-22T07:49:00.768Z,12.9
2023-03-22T07:50:00.563Z,12.9
2023-03-22T07:51:00.539Z,12.9
2023-03-22T07:52:00.583Z,12.9
2023-03-22T07:53:00.589Z,13.0
2023-03-22T07:54:01.180Z,13.1
2023-03-22T07:55:00.678Z,13.2
2023-03-22T07:56:00.532Z,13.2
2023-03-22T07:57:00.959Z,13.4
2023-03-22T07:58:01.312Z,13.5
2023-03-22T07:59:00.786Z,13.6
2023-03-22T08:00:00.785Z,13.7
2023-03-22T08:01:05.397Z,13.7
2023-03-22T08:02:00.604Z,13.8
2023-03-22T08:03:00.967Z,13.9
2023-03-22T08:04:00.548Z,14.1
2023-03-22T08:05:00.572Z,14.3
2023-03-22T08:06:01.768Z,14.4
2023-03-22T08:07:00.561Z,14.6
2023-03-22T08:08:00.564Z,14.6
2023-03-22T08:09:00.556Z,14.9
2023-03-22T08:10:00.819Z,15.2
2023-03-22T08:11:00.560Z,15.2
2023-03-22T08:12:00.632Z,15.2
2023-03-22T08:13:00.625Z,15.3
2023-03-22T08:14:00.663Z,15.6
2023-03-22T08:15:00.587Z,15.5
2023-03-22T08:16:00.741Z,15.4
2023-03-22T08:17:00.549Z,15.3
2023-03-22T08:18:00.560Z,15.4
2023-03-22T08:19:00.594Z,15.4
2023-03-22T08:20:00.851Z,15.5
2023-03-22T08:21:00.591Z,15.6
2023-03-22T08:22:00.807Z,15.4
2023-03-22T08:23:00.575Z,15.5
2023-03-22T08:24:00.571Z,15.5
2023-03-22T08:25:00.673Z,15.6
2023-03-22T08:26:00.613Z,15.1
2023-03-22T08:27:00.585Z,15.1
2023-03-22T08:28:00.617Z,15.1
2023-03-22T08:29:00.870Z,15.1
2023-03-22T08:30:00.906Z,15.1
2023-03-22T08:31:00.704Z,15.1
2023-03-22T08:32:00.636Z,15.1
2023-03-22T08:33:00.537Z,15.2
2023-03-22T08:34:00.569Z,15.3
2023-03-22T08:35:00.551Z,15.4
2023-03-22T08:36:07.572Z,15.2
2023-03-22T08:37:02.798Z,15.1
2023-03-22T08:38:00.629Z,15.2
2023-03-22T08:39:00.589Z,15.3
2023-03-22T08:40:00.622Z,15.6
2023-03-22T08:41:00.522Z,15.7
2023-03-22T08:42:00.601Z,15.6
2023-03-22T08:43:00.547Z,15.6
2023-03-22T08:44:00.583Z,15.3
2023-03-22T08:45:00.728Z,15.4
2023-03-22T08:46:00.727Z,15.8
2023-03-22T08:47:02.198Z,15.7
2023-03-22T08:48:00.597Z,15.6
2023-03-22T08:49:00.525Z,15.7
2023-03-22T08:50:00.645Z,15.5
2023-03-22T08:51:01.147Z,15.4
2023-03-22T08:52:00.602Z,15.9
2023-03-22T08:53:00.570Z,16.1
2023-03-22T08:54:00.937Z,16.1
2023-03-22T08:55:00.674Z,16.2
2023-03-22T08:56:00.563Z,16.1
2023-03-22T08:57:00.633Z,16.3
2023-03-22T08:58:00.826Z,15.8
2023-03-22T08:59:00.550Z,16.0
2023-03-22T09:00:00.574Z,16.3
2023-03-22T09:01:01.070Z,16.5
2023-03-22T09:02:00.752Z,16.7
2023-03-22T09:03:00.579Z,16.8
2023-03-22T09:04:00.946Z,16.8
2023-03-22T09:05:00.543Z,16.8
2023-03-22T09:06:00.557Z,16.8
2023-03-22T09:07:00.547Z,16.7
2023-03-22T09:08:05.914Z,16.7
2023-03-22T09:09:00.552Z,16.7
2023-03-22T09:10:00.588Z,16.9
2023-03-22T09:11:00.595Z,17.2
2023-03-22T09:12:00.664Z,17.5
2023-03-22T09:13:00.534Z,17.5
2023-03-22T09:14:00.563Z,17.2
2023-03-22T09:15:00.638Z,17.1
2023-03-22T09:16:00.769Z,17.1
2023-03-22T09:17:00.863Z,17.1
2023-03-22T09:18:00.577Z,17.3
2023-03-22T09:19:00.660Z,17.4
2023-03-22T09:20:11.957Z,17.3
2023-03-22T09:21:00.700Z,17.0
2023-03-22T09:22:00.651Z,17.1
2023-03-22T09:23:00.582Z,17.4
2023-03-22T09:24:00.551Z,17.6
2023-03-22T09:25:00.856Z,17.6
2023-03-22T09:26:02.304Z,17.7
2023-03-22T09:27:00.603Z,17.7
2023-03-22T09:28:00.873Z,17.7
2023-03-22T09:29:00.572Z,17.5
2023-03-22T09:30:00.660Z,17.3
2023-03-22T09:31:02.254Z,17.2
2023-03-22T09:32:00.719Z,17.0
2023-03-22T09:33:00.547Z,16.7
2023-03-22T09:34:00.571Z,16.3
2023-03-22T09:35:00.564Z,16.3
2023-03-22T09:36:00.734Z,16.3
2023-03-22T09:37:00.665Z,16.4
2023-03-22T09:38:00.584Z,16.3
2023-03-22T09:39:00.607Z,16.2
2023-03-22T09:40:00.581Z,16.1
2023-03-22T09:41:05.293Z,16.1
2023-03-22T09:42:04.302Z,16.1
2023-03-22T09:43:04.991Z,16.0
2023-03-22T09:44:04.299Z,16.1
2023-03-22T09:45:02.907Z,16.0
2023-03-22T09:46:02.227Z,15.8
2023-03-22T09:47:03.944Z,15.6
2023-03-22T09:48:05.083Z,15.4
2023-03-22T09:49:04.569Z,15.2
2023-03-22T09:50:06.039Z,15.1
2023-03-22T09:51:02.998Z,15.1
2023-03-22T09:52:01.247Z,15.2
2023-03-22T09:53:00.580Z,15.2
2023-03-22T09:54:01.096Z,15.3
2023-03-22T09:55:01.762Z,15.4
2023-03-22T09:56:16.645Z,15.4
2023-03-22T09:57:06.823Z,15.4
2023-03-22T09:58:17.933Z,15.2
2023-03-22T09:59:07.068Z,15.2
2023-03-22T10:00:20.592Z,15.2
2023-03-22T10:01:10.687Z,15.2
2023-03-22T10:02:10.251Z,15.1
2023-03-22T10:03:17.949Z,15.1
2023-03-22T10:04:09.433Z,15.2
2023-03-22T10:05:10.651Z,15.4
2023-03-22T10:06:05.477Z,15.4
2023-03-22T10:07:17.545Z,15.1
2023-03-22T10:08:13.740Z,15.2
2023-03-22T10:09:17.194Z,15.3
2023-03-22T10:10:13.768Z,15.3
2023-03-22T10:11:00.829Z,15.4
2023-03-22T10:12:14.655Z,15.5
2023-03-22T10:13:10.098Z,15.5
2023-03-22T10:14:17.379Z,15.7
2023-03-22T10:15:09.434Z,15.7
2023-03-22T10:16:02.963Z,15.7
2023-03-22T10:17:05.418Z,15.5
2023-03-22T10:18:05.328Z,15.6
2023-03-22T10:19:20.496Z,15.6
2023-03-22T10:20:05.881Z,15.7
2023-03-22T10:21:03.185Z,15.5
2023-03-22T10:22:02.399Z,15.4
2023-03-22T10:23:02.909Z,15.5
2023-03-22T10:24:13.370Z,15.4
2023-03-22T10:25:01.658Z,15.5
2023-03-22T10:26:02.417Z,15.5
2023-03-22T10:27:01.381Z,15.6
2023-03-22T10:28:01.238Z,15.7
2023-03-22T10:29:04.195Z,15.7
2023-03-22T10:30:15.756Z,15.8
2023-03-22T10:31:00.856Z,15.9
2023-03-22T10:32:12.841Z,15.9
2023-03-22T10:33:03.874Z,15.9
2023-03-22T10:34:05.419Z,15.9
2023-03-22T10:35:00.615Z,15.9
2023-03-22T10:36:03.064Z,15.9
2023-03-22T10:37:04.790Z,16.0
2023-03-22T10:38:03.731Z,16.0
2023-03-22T10:39:09.322Z,16.0
2023-03-22T10:40:03.884Z,15.9
2023-03-22T10:41:01.360Z,15.9
2023-03-22T10:42:04.898Z,15.9
2023-03-22T10:43:18.576Z,15.9
2023-03-22T10:44:03.967Z,15.6
2023-03-22T10:45:02.608Z,15.7
2023-03-22T10:46:03.449Z,15.7
2023-03-22T10:47:02.573Z,15.8
2023-03-22T10:48:08.439Z,15.8
2023-03-22T10:49:02.528Z,15.6
2023-03-22T10:50:05.930Z,15.5
2023-03-22T10:51:01.330Z,15.5
2023-03-22T10:52:06.413Z,15.5
2023-03-22T10:53:10.547Z,15.6
2023-03-22T10:54:00.826Z,15.6
2023-03-22T10:55:04.455Z,15.6
2023-03-22T10:56:00.791Z,15.6
2023-03-22T10:57:00.556Z,15.7
2023-03-22T10:58:13.235Z,15.7
2023-03-22T10:59:00.568Z,15.6
2023-03-22T11:00:03.683Z,15.5
2023-03-22T11:01:06.410Z,15.4
2023-03-22T11:02:00.731Z,15.4
2023-03-22T11:03:00.660Z,15.3
2023-03-22T11:04:11.908Z,15.3
2023-03-22T11:05:03.607Z,15.4
2023-03-22T11:06:06.166Z,15.5
2023-03-22T11:07:00.589Z,15.7
2023-03-22T11:08:02.099Z,15.8
2023-03-22T11:09:12.503Z,15.8
2023-03-22T11:10:07.952Z,15.8
2023-03-22T11:11:05.623Z,15.8
2023-03-22T11:12:02.487Z,15.8
2023-03-22T11:13:12.047Z,15.9
2023-03-22T11:14:06.813Z,15.9
2023-03-22T11:15:01.317Z,15.9
2023-03-22T11:16:01.888Z,16.0
2023-03-22T11:17:08.426Z,15.9
2023-03-22T11:18:10.369Z,15.8
2023-03-22T11:19:00.849Z,15.7
2023-03-22T11:20:05.650Z,15.8
2023-03-22T11:21:08.613Z,15.7
2023-03-22T11:22:04.964Z,15.6
2023-03-22T11:23:03.719Z,15.6
2023-03-22T11:24:04.373Z,15.7
2023-03-22T11:25:02.768Z,15.8
2023-03-22T11:26:08.747Z,15.8
2023-03-22T11:27:03.273Z,15.8
2023-03-22T11:28:03.788Z,15.9
2023-03-22T11:29:05.592Z,16.0
2023-03-22T11:30:19.734Z,16.0
2023-03-22T11:31:10.162Z,16.1
2023-03-22T11:32:00.675Z,16.2
2023-03-22T11:33:00.583Z,16.0
2023-03-22T11:34:01.053Z,16.0
2023-03-22T11:35:13.061Z,16.0
2023-03-22T11:36:12.647Z,16.1
2023-03-22T11:37:00.580Z,16.1
2023-03-22T11:38:00.559Z,16.1
2023-03-22T11:39:05.958Z,16.2
2023-03-22T11:40:01.303Z,16.2
2023-03-22T11:41:04.082Z,16.2
2023-03-22T11:42:04.460Z,16.1
2023-03-22T11:43:16.010Z,16.1
2023-03-22T11:44:04.410Z,16.0
2023-03-22T11:45:00.981Z,15.9
2023-03-22T11:46:01.651Z,15.9
2023-03-22T11:47:03.125Z,16.0
2023-03-22T11:48:04.831Z,16.0
2023-03-22T11:49:05.921Z,16.1
2023-03-22T11:50:02.972Z,16.2
2023-03-22T11:51:09.089Z,16.2
2023-03-22T11:52:07.461Z,16.2
2023-03-22T11:53:01.801Z,16.3
2023-03-22T11:54:08.121Z,16.4
2023-03-22T11:55:00.861Z,16.5
2023-03-22T11:56:01.896Z,16.4
2023-03-22T11:57:04.538Z,16.4
2023-03-22T11:58:03.672Z,16.4
2023-03-22T11:59:06.574Z,16.3
2023-03-22T12:00:06.544Z,16.2
2023-03-22T12:01:01.733Z,16.2
2023-03-22T12:02:11.579Z,16.4
2023-03-22T12:03:04.742Z,16.4
2023-03-22T12:04:04.666Z,16.5
2023-03-22T12:05:11.279Z,16.6
2023-03-22T12:06:03.145Z,16.6
2023-03-22T12:07:09.593Z,16.6
2023-03-22T12:08:15.016Z,16.5
2023-03-22T12:09:17.239Z,16.5
2023-03-22T12:10:06.299Z,16.6
2023-03-22T12:11:06.457Z,16.7
2023-03-22T12:12:02.570Z,16.6
2023-03-22T12:13:05.851Z,16.6
2023-03-22T12:14:20.433Z,16.5
2023-03-22T12:15:06.973Z,16.5
2023-03-22T12:16:04.383Z,16.6
2023-03-22T12:17:09.407Z,16.7
2023-03-22T12:18:07.823Z,16.8
2023-03-22T12:19:20.450Z,16.8
2023-03-22T12:20:13.823Z,16.8
2023-03-22T12:21:00.724Z,16.8
2023-03-22T12:22:00.573Z,16.8
2023-03-22T12:23:01.026Z,16.8
2023-03-22T12:24:02.261Z,16.7
2023-03-22T12:25:00.930Z,16.8
2023-03-22T12:26:06.006Z,16.8
2023-03-22T12:27:20.196Z,16.9
2023-03-22T12:28:06.894Z,16.8
2023-03-22T12:29:04.854Z,16.7
2023-03-22T12:30:11.156Z,16.8
2023-03-22T12:31:01.562Z,16.7
2023-03-22T12:32:08.061Z,16.7
2023-03-22T12:33:05.474Z,16.7
2023-03-22T12:34:06.098Z,16.6
2023-03-22T12:35:16.489Z,16.6
2023-03-22T12:36:02.739Z,16.6
2023-03-22T12:37:03.931Z,16.8
2023-03-22T12:38:11.126Z,16.9
2023-03-22T12:39:04.696Z,17.0
2023-03-22T12:40:07.465Z,17.1
2023-03-22T12:41:03.772Z,17.1
2023-03-22T12:42:09.213Z,17.0
2023-03-22T12:43:14.673Z,17.0
2023-03-22T12:44:02.587Z,17.0
2023-03-22T12:45:06.030Z,16.9
2023-03-22T12:46:03.685Z,17.0
2023-03-22T12:47:06.447Z,16.9
2023-03-22T12:48:14.041Z,17.0
2023-03-22T12:49:10.234Z,17.0
2023-03-22T12:50:04.986Z,17.0
2023-03-22T12:51:04.831Z,16.9
2023-03-22T12:52:13.947Z,16.9
2023-03-22T12:53:01.415Z,17.0
2023-03-22T12:54:01.406Z,17.0
2023-03-22T12:55:02.321Z,17.0
2023-03-22T12:56:01.460Z,17.0
2023-03-22T12:57:00.843Z,16.9
2023-03-22T12:58:03.931Z,16.8
2023-03-22T12:59:03.519Z,16.8
2023-03-22T13:00:06.257Z,16.7
2023-03-22T13:01:18.363Z,16.6
2023-03-22T13:02:15.568Z,16.7
2023-03-22T13:03:09.258Z,16.7
2023-03-22T13:04:20.540Z,16.7
2023-03-22T13:05:06.356Z,16.7
2023-03-22T13:06:15.612Z,16.6
2023-03-22T13:07:17.991Z,16.6
2023-03-22T13:08:01.108Z,16.7
2023-03-22T13:09:09.274Z,16.8
2023-03-22T13:10:20.443Z,16.9
2023-03-22T13:11:03.691Z,16.9
2023-03-22T13:12:18.104Z,17.0
2023-03-22T13:13:11.527Z,16.9
2023-03-22T13:14:00.908Z,16.8
2023-03-22T13:15:12.147Z,16.8
2023-03-22T13:16:10.490Z,16.8
2023-03-22T13:17:00.654Z,16.8
2023-03-22T13:18:01.539Z,16.8
2023-03-22T13:19:01.768Z,16.7
2023-03-22T13:20:10.504Z,16.7
2023-03-22T13:21:20.457Z,16.8
2023-03-22T13:22:13.094Z,16.9
2023-03-22T13:23:08.760Z,16.9
2023-03-22T13:24:07.968Z,16.9
2023-03-22T13:25:10.486Z,17.0
2023-03-22T13:26:03.244Z,16.9
2023-03-22T13:27:00.571Z,16.9
2023-03-22T13:28:02.964Z,16.9
2023-03-22T13:29:08.048Z,16.9
2023-03-22T13:30:00.780Z,16.9
2023-03-22T13:31:00.681Z,17.0